Time;durP1;ratioP1;P1;durP2;ratioP2;P2;SDS_P1;SDS_P2;PMS_P1;PMS_P2;Temp;Humidity;BMP_temperature;BMP_pressure;BME280_temperature;BME280_humidity;BME280_pressure;Samples;Min_cycle;Max_cycle;Signal;HPM_P1;HPM_P2
2021/09/16 00:00:12;;;;;;;13.52;11.93;;;19.30;99.90;;;;;;5093321;28;20024;-66
2021/09/16 00:02:38;;;;;;;15.25;12.30;;;19.30;99.90;;;;;;5092269;28;20046;-66
2021/09/16 00:05:04;;;;;;;16.27;13.13;;;19.30;99.90;;;;;;5092948;28;20047;-66
2021/09/16 00:07:30;;;;;;;16.38;12.70;;;19.40;99.90;;;;;;5092359;28;20020;-66
2021/09/16 00:09:56;;;;;;;19.77;12.85;;;19.40;99.90;;;;;;5092856;28;20330;-66
2021/09/16 00:12:21;;;;;;;18.40;14.73;;;19.40;99.90;;;;;;5091617;28;20032;-66
2021/09/16 00:14:47;;;;;;;18.52;13.52;;;19.30;99.90;;;;;;5091907;28;20473;-66
2021/09/16 00:17:13;;;;;;;15.63;13.23;;;19.30;99.90;;;;;;5092844;28;20052;-66
2021/09/16 00:19:38;;;;;;;20.33;12.73;;;19.30;99.90;;;;;;5092147;28;20438;-67
2021/09/16 00:22:04;;;;;;;17.00;12.00;;;19.30;99.90;;;;;;5090822;28;20024;-66
2021/09/16 00:24:29;;;;;;;14.43;12.38;;;19.40;99.90;;;;;;5091926;28;20339;-66
2021/09/16 00:26:55;;;;;;;19.60;11.77;;;19.40;99.90;;;;;;5090478;28;20059;-65
2021/09/16 00:29:21;;;;;;;17.25;13.57;;;19.40;99.90;;;;;;5090909;28;20081;-65
2021/09/16 00:31:46;;;;;;;17.73;14.25;;;19.40;99.90;;;;;;5091626;28;20032;-65
2021/09/16 00:34:12;;;;;;;16.63;12.55;;;19.40;99.90;;;;;;5091878;28;20495;-65
2021/09/16 00:36:37;;;;;;;16.90;12.25;;;19.20;99.90;;;;;;5091532;28;20016;-65
2021/09/16 00:39:04;;;;;;;13.93;11.30;;;19.30;99.90;;;;;;5090673;28;20377;-66
2021/09/16 00:41:30;;;;;;;15.57;12.15;;;19.20;99.90;;;;;;5090192;28;20072;-66
2021/09/16 00:43:56;;;;;;;15.13;11.60;;;19.20;99.90;;;;;;5091984;28;20493;-65
2021/09/16 00:46:21;;;;;;;14.73;10.75;;;19.20;99.90;;;;;;5091767;28;20032;-65
2021/09/16 00:48:47;;;;;;;13.93;12.32;;;19.30;99.90;;;;;;5090097;28;20925;-66
2021/09/16 00:51:13;;;;;;;17.55;13.25;;;19.30;99.90;;;;;;5090665;28;20028;-65
2021/09/16 00:53:39;;;;;;;16.50;13.70;;;19.30;99.90;;;;;;5090884;28;20047;-66
2021/09/16 00:56:07;;;;;;;17.73;12.90;;;19.30;99.90;;;;;;5090419;28;20036;-66
2021/09/16 00:58:39;;;;;;;14.90;12.73;;;19.30;99.90;;;;;;5090853;28;20032;-67
2021/09/16 01:01:06;;;;;;;21.40;12.63;;;19.30;99.90;;;;;;5091912;28;20108;-66
2021/09/16 01:03:32;;;;;;;13.90;11.88;;;19.20;99.90;;;;;;5091281;28;20036;-67
2021/09/16 01:05:58;;;;;;;13.27;11.95;;;19.20;99.90;;;;;;5091912;28;20107;-67
2021/09/16 01:08:24;;;;;;;16.30;12.80;;;19.10;99.90;;;;;;5090447;28;20024;-67
2021/09/16 01:10:50;;;;;;;15.63;12.73;;;19.10;99.90;;;;;;5090663;28;20220;-66
2021/09/16 01:13:16;;;;;;;17.73;12.70;;;18.90;99.90;;;;;;5091569;28;20474;-67
2021/09/16 01:15:43;;;;;;;14.93;12.85;;;19.00;99.90;;;;;;5090971;28;20051;-66
2021/09/16 01:18:09;;;;;;;18.40;13.48;;;18.90;99.90;;;;;;5090286;28;20031;-67
2021/09/16 01:20:35;;;;;;;16.00;12.75;;;19.00;99.90;;;;;;5090535;28;20107;-66
2021/09/16 01:23:00;;;;;;;15.30;12.23;;;18.90;99.90;;;;;;5089634;28;20224;-66
2021/09/16 01:25:28;;;;;;;17.38;13.57;;;19.00;99.90;;;;;;5091214;28;20039;-66
2021/09/16 01:27:56;;;;;;;15.02;12.43;;;18.90;99.90;;;;;;5090450;28;20055;-67
2021/09/16 01:30:21;;;;;;;19.23;14.30;;;19.00;99.90;;;;;;5091144;28;20359;-66
2021/09/16 01:32:49;;;;;;;15.13;12.98;;;18.90;99.90;;;;;;5089335;28;20028;-66
2021/09/16 01:35:15;;;;;;;19.98;14.00;;;19.00;99.90;;;;;;5091484;28;20122;-66
2021/09/16 01:37:41;;;;;;;16.85;13.07;;;19.00;99.90;;;;;;5090638;28;20091;-66
2021/09/16 01:40:08;;;;;;;21.30;14.98;;;19.10;99.90;;;;;;5072849;28;20063;-66
2021/09/16 01:42:33;;;;;;;20.98;16.10;;;19.10;99.90;;;;;;5090778;28;20035;-67
2021/09/16 01:44:59;;;;;;;17.20;14.25;;;19.00;99.90;;;;;;5091158;28;20036;-66
2021/09/16 01:47:24;;;;;;;15.52;13.93;;;19.00;99.90;;;;;;5091224;28;20024;-65
2021/09/16 01:49:50;;;;;;;18.05;14.80;;;19.00;99.90;;;;;;5090642;28;20499;-67
2021/09/16 01:52:18;;;;;;;19.10;17.10;;;19.00;99.90;;;;;;5089424;28;20122;-66
2021/09/16 01:54:44;;;;;;;20.02;15.38;;;18.90;99.90;;;;;;5090518;28;20029;-66
2021/09/16 01:57:10;;;;;;;25.17;14.50;;;18.90;99.90;;;;;;5091091;28;20035;-66
2021/09/16 01:59:35;;;;;;;19.40;14.75;;;18.90;99.90;;;;;;5089310;28;20518;-67
2021/09/16 02:02:01;;;;;;;19.45;12.63;;;18.90;99.90;;;;;;5090739;28;20484;-66
2021/09/16 02:04:27;;;;;;;17.65;14.65;;;18.90;99.90;;;;;;5091358;28;20469;-67
2021/09/16 02:06:53;;;;;;;20.90;15.73;;;18.90;99.90;;;;;;5089127;28;20185;-67
2021/09/16 02:09:19;;;;;;;19.42;14.55;;;18.80;99.90;;;;;;5089726;28;20032;-67
2021/09/16 02:11:45;;;;;;;18.23;15.32;;;18.60;99.90;;;;;;5088923;28;20035;-67
2021/09/16 02:14:10;;;;;;;20.08;15.40;;;18.60;99.90;;;;;;5091459;28;20028;-67
2021/09/16 02:16:36;;;;;;;20.83;16.25;;;18.60;99.90;;;;;;5090451;28;20059;-67
2021/09/16 02:19:02;;;;;;;23.00;17.17;;;18.60;99.90;;;;;;5089923;28;20020;-66
2021/09/16 02:21:28;;;;;;;20.30;16.85;;;18.60;99.90;;;;;;5090640;28;20392;-66
2021/09/16 02:23:53;;;;;;;16.77;14.85;;;18.60;99.90;;;;;;5093143;28;20210;-67
2021/09/16 02:26:19;;;;;;;22.00;16.50;;;18.70;99.90;;;;;;5094660;28;20423;-66
2021/09/16 02:28:45;;;;;;;22.40;18.70;;;18.70;99.90;;;;;;5094133;28;20043;-66
2021/09/16 02:31:10;;;;;;;21.55;15.63;;;18.70;99.90;;;;;;5094744;28;20028;-67
2021/09/16 02:33:36;;;;;;;24.02;16.98;;;18.70;99.90;;;;;;5094066;28;20051;-67
2021/09/16 02:36:02;;;;;;;18.45;15.18;;;18.70;99.90;;;;;;5094676;28;20036;-66
2021/09/16 02:38:27;;;;;;;18.40;15.38;;;18.70;99.90;;;;;;5092784;28;20110;-66
2021/09/16 02:40:53;;;;;;;23.50;17.02;;;18.70;99.90;;;;;;5092309;28;20123;-66
2021/09/16 02:43:19;;;;;;;21.95;17.17;;;18.80;99.90;;;;;;5092623;28;20025;-66
2021/09/16 02:45:45;;;;;;;27.60;19.40;;;18.80;99.90;;;;;;5093730;28;20028;-66
2021/09/16 02:48:11;;;;;;;19.88;16.35;;;18.70;99.90;;;;;;5094700;28;20465;-66
2021/09/16 02:50:37;;;;;;;21.05;16.17;;;18.60;99.90;;;;;;5093859;28;20366;-67
2021/09/16 02:53:03;;;;;;;19.60;16.00;;;18.60;99.90;;;;;;5094238;28;20051;-66
2021/09/16 02:55:29;;;;;;;24.80;17.85;;;18.70;99.90;;;;;;5093978;28;20431;-66
2021/09/16 02:57:54;;;;;;;19.63;16.02;;;18.70;99.90;;;;;;5093603;28;20511;-66
2021/09/16 03:00:20;;;;;;;26.58;19.55;;;18.70;99.90;;;;;;5092765;28;20085;-66
2021/09/16 03:02:46;;;;;;;20.42;16.40;;;18.70;99.90;;;;;;5092112;28;20032;-66
2021/09/16 03:05:11;;;;;;;18.75;16.45;;;18.60;99.90;;;;;;5094041;28;20127;-66
2021/09/16 03:07:37;;;;;;;21.58;15.55;;;18.70;99.90;;;;;;5093371;28;20030;-67
2021/09/16 03:10:04;;;;;;;22.33;17.67;;;18.70;99.90;;;;;;5092485;28;20020;-66
2021/09/16 03:12:30;;;;;;;21.20;17.55;;;18.60;99.90;;;;;;5093991;28;20035;-66
2021/09/16 03:14:56;;;;;;;21.23;17.85;;;18.60;99.90;;;;;;5091887;28;20036;-65
2021/09/16 03:17:21;;;;;;;22.73;17.02;;;18.60;99.90;;;;;;5093933;28;20036;-66
2021/09/16 03:19:47;;;;;;;26.75;18.90;;;18.70;99.90;;;;;;5091752;28;20028;-66
2021/09/16 03:22:13;;;;;;;23.05;17.80;;;18.60;99.90;;;;;;5091936;28;20020;-66
2021/09/16 03:24:38;;;;;;;21.38;17.58;;;18.60;99.90;;;;;;5093006;28;20036;-65
2021/09/16 03:27:04;;;;;;;23.17;17.73;;;18.50;99.90;;;;;;5092343;28;20462;-65
2021/09/16 03:29:30;;;;;;;24.20;17.92;;;18.50;99.90;;;;;;5093579;28;20354;-66
2021/09/16 03:31:55;;;;;;;25.02;18.23;;;18.60;99.90;;;;;;5093026;28;20112;-65
2021/09/16 03:34:21;;;;;;;24.90;18.35;;;18.60;99.90;;;;;;5093025;28;20178;-65
2021/09/16 03:36:47;;;;;;;21.98;17.42;;;18.60;99.90;;;;;;5092776;28;20105;-66
2021/09/16 03:39:12;;;;;;;21.55;17.13;;;18.60;99.90;;;;;;5093340;28;20047;-66
2021/09/16 03:41:39;;;;;;;29.15;19.40;;;18.60;99.90;;;;;;5090607;28;20377;-76
2021/09/16 03:44:04;;;;;;;21.88;19.17;;;18.60;99.90;;;;;;5073312;28;20097;-66
2021/09/16 03:46:30;;;;;;;23.55;18.63;;;18.60;99.90;;;;;;5071858;28;20029;-66
2021/09/16 03:48:56;;;;;;;21.38;15.35;;;18.60;99.90;;;;;;5072942;28;20446;-66
2021/09/16 03:51:22;;;;;;;22.60;15.50;;;18.70;99.90;;;;;;5073024;28;20028;-65
2021/09/16 03:53:47;;;;;;;24.63;17.55;;;18.70;99.90;;;;;;5072396;28;20036;-66
2021/09/16 03:56:13;;;;;;;20.15;16.63;;;18.70;99.90;;;;;;5071410;28;20484;-66
2021/09/16 03:58:39;;;;;;;20.88;16.92;;;18.60;99.90;;;;;;5071325;28;20119;-66
2021/09/16 04:01:05;;;;;;;21.02;17.30;;;18.60;99.90;;;;;;5072709;28;20434;-66
2021/09/16 04:03:30;;;;;;;23.75;18.38;;;18.60;99.90;;;;;;5070889;28;20063;-67
2021/09/16 04:05:56;;;;;;;20.35;17.50;;;18.60;99.90;;;;;;5072001;28;20107;-66
2021/09/16 04:08:21;;;;;;;25.70;19.08;;;18.70;99.90;;;;;;5072431;28;20029;-66
2021/09/16 04:10:47;;;;;;;24.52;17.10;;;18.60;99.90;;;;;;5071931;28;20103;-66
2021/09/16 04:13:13;;;;;;;19.55;16.85;;;18.60;99.90;;;;;;5072346;28;20033;-66
2021/09/16 04:15:39;;;;;;;21.27;16.33;;;18.60;99.90;;;;;;5072149;28;20024;-66
2021/09/16 04:18:05;;;;;;;20.45;15.85;;;18.70;99.90;;;;;;5071759;28;20028;-67
2021/09/16 04:20:31;;;;;;;23.00;16.95;;;18.80;99.90;;;;;;5071961;28;20032;-67
2021/09/16 04:22:57;;;;;;;19.58;15.73;;;18.60;99.90;;;;;;5071123;28;20125;-67
2021/09/16 04:25:23;;;;;;;19.95;14.98;;;18.60;99.90;;;;;;5071961;28;20040;-66
2021/09/16 04:27:49;;;;;;;19.00;15.55;;;18.50;99.90;;;;;;5070056;28;20024;-65
2021/09/16 04:30:14;;;;;;;20.30;14.70;;;18.60;99.90;;;;;;5070558;28;20032;-65
2021/09/16 04:32:41;;;;;;;14.20;11.95;;;18.60;99.90;;;;;;5070485;28;20198;-65
2021/09/16 04:35:08;;;;;;;14.57;11.50;;;18.50;99.90;;;;;;5071768;28;20024;-66
2021/09/16 04:37:34;;;;;;;14.38;11.35;;;18.60;99.90;;;;;;5070256;28;20024;-66
2021/09/16 04:40:00;;;;;;;12.68;11.27;;;18.50;99.90;;;;;;5069588;28;20098;-66
2021/09/16 04:42:26;;;;;;;16.00;11.27;;;18.50;99.90;;;;;;5071546;28;20029;-65
2021/09/16 04:44:52;;;;;;;10.73;9.23;;;18.50;99.90;;;;;;5070147;28;20094;-65
2021/09/16 04:47:18;;;;;;;12.43;9.45;;;18.40;99.90;;;;;;5071138;28;20454;-65
2021/09/16 04:49:44;;;;;;;15.07;11.00;;;18.40;99.90;;;;;;5070878;28;20025;-66
2021/09/16 04:52:09;;;;;;;13.88;10.68;;;18.40;99.90;;;;;;5071235;28;20028;-66
2021/09/16 04:54:35;;;;;;;14.10;10.25;;;18.40;99.90;;;;;;5071352;28;20476;-65
2021/09/16 04:57:01;;;;;;;12.40;9.88;;;18.40;99.90;;;;;;5070472;28;20028;-65
2021/09/16 04:59:26;;;;;;;12.90;10.68;;;18.40;99.90;;;;;;5071101;28;20078;-65
2021/09/16 05:01:52;;;;;;;11.85;10.50;;;18.30;99.90;;;;;;5070444;28;20028;-66
2021/09/16 05:04:18;;;;;;;10.68;9.13;;;18.30;99.90;;;;;;5069681;28;20033;-65
2021/09/16 05:06:43;;;;;;;13.60;9.68;;;18.30;99.90;;;;;;5070699;28;20037;-75
2021/09/16 05:09:09;;;;;;;9.55;8.32;;;18.20;99.90;;;;;;5071162;28;20355;-66
2021/09/16 05:11:40;;;;;;;9.35;8.27;;;18.20;99.90;;;;;;5070997;28;20442;-66
2021/09/16 05:14:06;;;;;;;;;;;18.30;99.90;;;;;;5071133;28;20024;-67
2021/09/16 05:16:32;;;;;;;10.80;6.60;;;18.40;99.90;;;;;;5071007;28;19966;-65
2021/09/16 05:18:58;;;;;;;11.30;7.05;;;18.40;99.90;;;;;;5070248;28;20028;-66
2021/09/16 05:21:24;;;;;;;8.30;7.30;;;18.40;99.90;;;;;;5070939;28;20027;-66
2021/09/16 05:23:50;;;;;;;9.35;6.70;;;18.40;99.90;;;;;;5070100;28;20048;-66
2021/09/16 05:26:15;;;;;;;7.32;6.55;;;18.30;99.90;;;;;;5070780;28;20035;-66
2021/09/16 05:28:43;;;;;;;13.27;7.47;;;18.40;99.90;;;;;;5069469;28;20024;-66
2021/09/16 05:31:09;;;;;;;14.55;7.88;;;18.40;99.90;;;;;;5068862;28;20116;-65
2021/09/16 05:33:34;;;;;;;12.52;7.47;;;18.30;99.90;;;;;;5070956;28;20107;-66
2021/09/16 05:36:02;;;;;;;11.75;7.03;;;18.30;99.90;;;;;;5068378;28;20032;-66
2021/09/16 05:38:28;;;;;;;7.53;6.63;;;18.30;99.90;;;;;;5069235;28;20043;-67
2021/09/16 05:40:53;;;;;;;13.73;6.88;;;18.30;99.90;;;;;;5069825;28;20481;-67
2021/09/16 05:43:19;;;;;;;15.38;8.02;;;18.40;99.90;;;;;;5069259;28;20021;-67
2021/09/16 05:45:45;;;;;;;21.23;7.65;;;18.40;99.90;;;;;;5070391;28;20036;-64
2021/09/16 05:48:10;;;;;;;12.50;8.00;;;18.40;99.90;;;;;;5070459;28;20107;-66
2021/09/16 05:50:36;;;;;;;12.63;8.27;;;18.40;99.90;;;;;;5068952;28;20039;-67
2021/09/16 05:53:02;;;;;;;8.07;6.95;;;18.40;99.90;;;;;;5068248;28;20029;-67
2021/09/16 05:55:28;;;;;;;8.82;7.18;;;18.50;99.90;;;;;;5070629;28;20036;-66
2021/09/16 05:57:54;;;;;;;9.75;6.80;;;18.50;99.90;;;;;;5073830;28;20040;-66
2021/09/16 06:00:23;;;;;;;9.25;7.03;;;18.50;99.90;;;;;;5073286;28;20043;-66
2021/09/16 06:02:48;;;;;;;13.48;7.55;;;18.40;99.90;;;;;;5074303;28;20017;-67
2021/09/16 06:05:14;;;;;;;12.95;8.18;;;18.40;99.90;;;;;;5074212;28;20067;-66
2021/09/16 06:07:39;;;;;;;9.38;7.68;;;18.40;99.90;;;;;;5074145;28;20234;-67
2021/09/16 06:10:05;;;;;;;8.85;6.88;;;18.30;99.90;;;;;;5073606;28;20427;-67
2021/09/16 06:12:32;;;;;;;9.25;7.18;;;18.30;99.90;;;;;;5072909;28;20390;-66
2021/09/16 06:14:58;;;;;;;10.10;7.68;;;18.40;99.90;;;;;;5073880;28;20141;-66
2021/09/16 06:17:24;;;;;;;9.82;7.50;;;18.30;99.90;;;;;;5074378;28;20476;-66
2021/09/16 06:19:49;;;;;;;9.18;7.63;;;18.40;99.90;;;;;;5073367;28;20028;-67
2021/09/16 06:22:15;;;;;;;10.57;7.78;;;18.40;99.90;;;;;;5073583;28;20111;-67
2021/09/16 06:24:41;;;;;;;9.43;6.70;;;18.40;99.90;;;;;;5074049;28;20052;-67
2021/09/16 06:27:07;;;;;;;11.15;7.05;;;18.50;99.90;;;;;;5072370;28;20031;-66
2021/09/16 06:29:32;;;;;;;11.43;6.82;;;18.50;99.90;;;;;;5074065;28;20031;-67
2021/09/16 06:31:58;;;;;;;12.80;6.80;;;18.50;99.90;;;;;;5073316;28;20024;-68
2021/09/16 06:34:25;;;;;;;8.07;6.78;;;18.50;99.90;;;;;;5072501;28;20032;-66
2021/09/16 06:36:51;;;;;;;7.38;6.13;;;18.50;99.90;;;;;;5071715;28;20051;-66
2021/09/16 06:39:17;;;;;;;11.55;7.22;;;18.50;99.90;;;;;;5072092;28;20470;-67
2021/09/16 06:41:43;;;;;;;6.00;5.40;;;18.60;99.90;;;;;;5072216;28;20415;-66
2021/09/16 06:44:08;;;;;;;9.10;6.00;;;18.60;99.90;;;;;;5083102;28;20043;-66
2021/09/16 06:46:34;;;;;;;9.40;5.50;;;18.50;99.90;;;;;;5092013;28;20073;-66
2021/09/16 06:48:59;;;;;;;10.10;5.65;;;18.50;99.90;;;;;;5091695;28;20035;-67
2021/09/16 06:51:26;;;;;;;8.48;5.95;;;18.60;99.90;;;;;;5084695;28;20036;-66
2021/09/16 06:53:52;;;;;;;10.00;5.55;;;18.60;99.90;;;;;;5083220;28;20031;-67
2021/09/16 06:56:18;;;;;;;7.13;4.80;;;18.70;99.90;;;;;;5093739;28;20035;-63
2021/09/16 06:58:44;;;;;;;10.85;5.85;;;18.80;99.90;;;;;;5092174;28;20385;-63
2021/09/16 07:01:09;;;;;;;8.30;5.90;;;18.80;99.90;;;;;;5091214;28;20580;-63
2021/09/16 07:03:35;;;;;;;8.40;5.60;;;18.90;99.90;;;;;;5091617;28;20031;-63
2021/09/16 07:06:00;;;;;;;9.18;5.55;;;19.00;99.90;;;;;;5093005;28;20024;-63
2021/09/16 07:08:26;;;;;;;6.95;5.35;;;19.00;99.90;;;;;;5076140;28;20544;-64
2021/09/16 07:10:52;;;;;;;8.48;5.10;;;19.20;99.90;;;;;;5091474;28;20161;-64
2021/09/16 07:13:17;;;;;;;6.57;4.60;;;19.20;99.90;;;;;;5093813;28;20035;-65
2021/09/16 07:15:43;;;;;;;8.23;5.93;;;19.40;99.90;;;;;;5091461;28;20024;-64
2021/09/16 07:18:09;;;;;;;6.80;5.38;;;19.50;99.90;;;;;;5091475;28;20024;-63
2021/09/16 07:20:35;;;;;;;6.65;5.85;;;19.50;99.90;;;;;;5093063;28;20028;-65
2021/09/16 07:23:01;;;;;;;7.43;5.25;;;19.50;99.90;;;;;;5091024;28;20087;-63
2021/09/16 07:25:26;;;;;;;6.07;5.07;;;19.60;99.90;;;;;;5093016;28;20074;-65
2021/09/16 07:27:52;;;;;;;6.28;5.68;;;19.70;99.90;;;;;;5092680;28;20449;-69
2021/09/16 07:30:18;;;;;;;8.95;5.78;;;19.70;99.90;;;;;;5093403;28;20134;-64
2021/09/16 07:32:44;;;;;;;6.10;4.88;;;19.60;99.90;;;;;;5093310;28;20085;-64
2021/09/16 07:35:10;;;;;;;7.47;5.90;;;19.90;99.90;;;;;;5092468;28;20032;-65
2021/09/16 07:37:36;;;;;;;10.10;6.93;;;19.90;99.90;;;;;;5093012;28;20036;-64
2021/09/16 07:40:03;;;;;;;12.10;6.97;;;19.90;99.90;;;;;;5092150;28;20028;-64
2021/09/16 07:42:29;;;;;;;7.45;6.57;;;20.00;99.90;;;;;;5092851;28;20051;-66
2021/09/16 07:44:54;;;;;;;10.23;5.57;;;20.10;99.90;;;;;;5090432;28;20086;-65
2021/09/16 07:47:20;;;;;;;8.23;7.35;;;20.30;99.90;;;;;;5085786;28;20425;-67
2021/09/16 07:49:47;;;;;;;7.30;6.38;;;20.30;99.90;;;;;;5092631;28;20385;-67
2021/09/16 07:52:13;;;;;;;9.85;5.80;;;20.10;99.90;;;;;;5091936;28;20028;-67
2021/09/16 07:54:39;;;;;;;5.75;5.25;;;20.00;99.90;;;;;;5091292;28;20628;-67
2021/09/16 07:57:05;;;;;;;7.30;4.35;;;19.90;99.90;;;;;;5071393;28;20108;-67
2021/09/16 07:59:31;;;;;;;5.38;3.95;;;20.30;99.90;;;;;;5072456;28;20378;-67
2021/09/16 08:01:56;;;;;;;4.38;3.10;;;20.80;99.90;;;;;;5080239;28;20362;-68
2021/09/16 08:04:23;;;;;;;6.57;3.28;;;21.20;99.90;;;;;;5072414;28;20033;-67
2021/09/16 08:06:48;;;;;;;9.50;3.38;;;21.70;99.90;;;;;;5082919;28;20027;-67
2021/09/16 08:09:14;;;;;;;17.52;4.47;;;21.80;99.90;;;;;;5071615;28;20235;-68
2021/09/16 08:11:40;;;;;;;4.60;2.80;;;21.90;99.90;;;;;;5080552;28;20056;-67
2021/09/16 08:14:06;;;;;;;5.70;3.20;;;22.00;99.90;;;;;;5090020;28;20028;-68
2021/09/16 08:16:33;;;;;;;3.65;3.00;;;22.30;99.90;;;;;;5082760;28;20081;-69
2021/09/16 08:18:58;;;;;;;4.90;3.15;;;21.80;99.10;;;;;;5079018;28;20462;-68
2021/09/16 08:21:24;;;;;;;4.35;3.25;;;21.40;99.30;;;;;;5079113;28;20089;-68
2021/09/16 08:23:51;;;;;;;6.05;3.50;;;21.40;99.90;;;;;;5090165;28;20051;-68
2021/09/16 08:26:16;;;;;;;5.15;3.22;;;21.00;99.80;;;;;;5089464;28;20050;-68
2021/09/16 08:28:42;;;;;;;7.70;3.67;;;20.60;99.90;;;;;;5092003;28;20032;-50
2021/09/16 08:31:08;;;;;;;4.55;3.30;;;21.20;99.90;;;;;;5091117;28;20464;-49
2021/09/16 08:33:34;;;;;;;5.88;2.92;;;21.80;99.90;;;;;;5090137;28;20036;-50
2021/09/16 08:36:00;;;;;;;7.15;3.30;;;22.20;99.90;;;;;;5083403;28;20042;-49
2021/09/16 08:38:26;;;;;;;4.47;3.40;;;22.80;99.90;;;;;;5093300;28;20362;-49
2021/09/16 08:40:51;;;;;;;12.20;4.55;;;23.00;99.40;;;;;;5091818;28;20466;-50
2021/09/16 08:43:21;;;;;;;4.47;2.47;;;23.50;99.50;;;;;;5090660;28;20036;-50
2021/09/16 08:45:48;;;;;;;4.80;2.60;;;24.00;98.00;;;;;;5090834;28;20423;-48
2021/09/16 08:48:14;;;;;;;4.03;2.55;;;24.30;96.90;;;;;;5090852;28;20052;-49
2021/09/16 08:50:40;;;;;;;19.92;4.70;;;24.50;97.40;;;;;;5090971;28;20132;-47
2021/09/16 08:53:06;;;;;;;7.47;2.60;;;24.60;99.30;;;;;;5088918;28;20031;-46
2021/09/16 08:55:33;;;;;;;8.05;2.88;;;24.60;99.90;;;;;;5090492;28;20044;-47
2021/09/16 08:58:02;;;;;;;4.57;1.92;;;24.70;99.90;;;;;;5083730;28;20024;-48
2021/09/16 09:00:30;;;;;;;6.40;2.30;;;24.70;99.90;;;;;;5090948;28;20093;-47
2021/09/16 09:02:57;;;;;;;5.97;1.85;;;24.40;99.10;;;;;;5091002;28;20032;-65
2021/09/16 09:05:26;;;;;;;5.80;1.20;;;24.30;96.20;;;;;;5090127;28;20455;-65
2021/09/16 09:07:54;;;;;;;5.55;0.93;;;24.50;94.70;;;;;;5084130;28;20453;-66
2021/09/16 09:10:42;;;;;;;3.75;1.20;;;24.60;94.30;;;;;;5069351;28;20096;-65
2021/09/16 09:13:15;;;;;;;6.75;1.20;;;24.90;96.80;;;;;;5069339;28;20470;-65
2021/09/16 09:15:42;;;;;;;2.55;0.93;;;25.30;94.40;;;;;;5069875;28;20040;-65
2021/09/16 09:18:17;;;;;;;2.35;0.75;;;25.20;94.50;;;;;;5069279;28;20028;-66
2021/09/16 09:21:06;;;;;;;2.67;1.10;;;25.10;93.70;;;;;;5070204;28;20052;-65
2021/09/16 09:23:39;;;;;;;2.10;0.75;;;24.70;95.70;;;;;;5068323;28;20044;-65
2021/09/16 09:26:36;;;;;;;5.68;1.10;;;24.60;93.30;;;;;;5068307;28;20179;-64
2021/09/16 09:29:08;;;;;;;4.85;1.30;;;24.60;93.40;;;;;;5068414;28;20016;-64
2021/09/16 09:31:40;;;;;;;2.90;0.82;;;24.20;93.60;;;;;;5070243;28;20025;-65
2021/09/16 09:34:29;;;;;;;2.75;0.93;;;23.90;93.70;;;;;;5068190;28;20040;-64
2021/09/16 09:37:17;;;;;;;3.47;0.73;;;23.60;94.30;;;;;;5068883;28;20017;-65
2021/09/16 09:39:45;;;;;;;1.70;0.70;;;23.50;94.40;;;;;;5069242;28;20063;-65
2021/09/16 09:42:16;;;;;;;3.22;0.70;;;23.50;95.00;;;;;;5076312;28;20453;-65
2021/09/16 09:44:42;;;;;;;5.25;0.60;;;23.50;94.50;;;;;;5090886;28;20032;-68
2021/09/16 09:47:08;;;;;;;4.57;1.08;;;23.60;94.10;;;;;;5086068;28;20026;-65
2021/09/16 09:49:36;;;;;;;1.75;0.52;;;23.70;95.80;;;;;;5090452;28;20027;-65
2021/09/16 09:52:02;;;;;;;4.30;1.30;;;23.70;94.40;;;;;;5079838;28;20130;-66
2021/09/16 09:54:32;;;;;;;1.40;1.00;;;23.50;94.70;;;;;;5077593;28;20546;-66
2021/09/16 09:57:17;;;;;;;1.88;0.75;;;23.50;96.30;;;;;;5070028;28;20028;-67
2021/09/16 09:59:49;;;;;;;1.83;0.73;;;23.70;95.80;;;;;;5069864;28;20047;-64
2021/09/16 10:02:15;;;;;;;2.03;0.70;;;23.90;94.10;;;;;;5069329;28;20497;-65
2021/09/16 10:04:42;;;;;;;4.93;1.13;;;23.70;93.60;;;;;;5068549;28;20038;-65
2021/09/16 10:07:08;;;;;;;3.20;1.33;;;23.50;93.50;;;;;;5069371;28;20037;-65
2021/09/16 10:09:34;;;;;;;2.03;1.42;;;23.30;94.20;;;;;;5068830;28;20327;-66
2021/09/16 10:12:00;;;;;;;3.67;1.42;;;23.00;94.90;;;;;;5070081;28;20025;-65
2021/09/16 10:14:26;;;;;;;1.70;1.25;;;23.00;94.90;;;;;;5067975;28;20044;-65
2021/09/16 10:16:52;;;;;;;2.65;0.80;;;23.10;95.20;;;;;;5073770;28;20039;-64
2021/09/16 10:19:18;;;;;;;2.00;1.40;;;23.10;94.70;;;;;;5086893;28;20024;-65
2021/09/16 10:21:44;;;;;;;5.47;1.60;;;22.80;95.40;;;;;;5088496;28;20029;-64
2021/09/16 10:24:14;;;;;;;6.68;1.30;;;22.90;95.20;;;;;;5086577;28;20048;-65
2021/09/16 10:26:43;;;;;;;4.75;2.08;;;22.70;95.00;;;;;;5085706;28;20149;-64
2021/09/16 10:29:32;;;;;;;5.15;1.30;;;22.70;95.40;;;;;;5087209;28;20050;-65
2021/09/16 10:32:07;;;;;;;5.07;1.73;;;22.70;94.90;;;;;;5089262;28;20065;-66
2021/09/16 10:34:48;;;;;;;5.95;1.77;;;22.60;95.40;;;;;;5088677;28;20024;-66
2021/09/16 10:37:16;;;;;;;2.85;1.77;;;22.50;94.60;;;;;;5087218;28;20095;-65
2021/09/16 10:39:43;;;;;;;3.03;1.50;;;22.40;95.20;;;;;;5087499;28;20088;-64
2021/09/16 10:42:10;;;;;;;3.65;1.73;;;22.40;96.50;;;;;;5086976;28;20024;-66
2021/09/16 10:44:37;;;;;;;5.10;1.73;;;22.20;96.40;;;;;;5088836;28;20060;-66
2021/09/16 10:47:23;;;;;;;1.90;1.42;;;22.30;95.10;;;;;;5092307;28;20077;-67
2021/09/16 10:49:51;;;;;;;1.63;1.50;;;22.40;95.00;;;;;;5090894;28;20020;-65
2021/09/16 10:52:22;;;;;;;2.80;1.65;;;22.30;94.80;;;;;;5089536;28;20162;-66
2021/09/16 10:54:54;;;;;;;1.50;1.10;;;22.30;95.70;;;;;;5092674;28;20405;-66
2021/09/16 10:57:34;;;;;;;4.25;1.92;;;22.40;95.50;;;;;;5089845;28;20093;-66
2021/09/16 11:00:00;;;;;;;2.75;1.85;;;22.20;95.70;;;;;;5089150;28;20020;-65
2021/09/16 11:02:47;;;;;;;3.33;1.55;;;22.20;96.20;;;;;;5091513;28;20458;-65
2021/09/16 11:05:14;;;;;;;3.53;1.70;;;22.20;96.10;;;;;;5091233;28;20115;-64
2021/09/16 11:07:44;;;;;;;3.95;2.03;;;22.10;96.70;;;;;;5089942;28;20040;-66
2021/09/16 11:10:13;;;;;;;5.20;2.13;;;22.00;96.50;;;;;;5088933;28;20028;-66
2021/09/16 11:12:40;;;;;;;3.83;2.85;;;21.90;96.00;;;;;;5092098;28;20028;-66
2021/09/16 11:15:06;;;;;;;5.47;1.60;;;21.60;96.50;;;;;;5089925;28;20042;-66
2021/09/16 11:17:32;;;;;;;2.80;1.88;;;21.60;96.60;;;;;;5090838;28;20020;-67
2021/09/16 11:19:59;;;;;;;2.38;1.73;;;21.50;97.10;;;;;;5090168;28;20024;-66
2021/09/16 11:22:24;;;;;;;5.90;2.63;;;21.40;97.60;;;;;;5090811;28;20035;-66
2021/09/16 11:24:55;;;;;;;5.78;1.95;;;21.50;96.70;;;;;;5090035;28;20032;-65
2021/09/16 11:27:39;;;;;;;4.03;2.10;;;21.30;96.50;;;;;;5086270;28;20487;-66
2021/09/16 11:30:13;;;;;;;2.85;1.52;;;21.20;97.50;;;;;;5089645;28;20031;-66
2021/09/16 11:32:40;;;;;;;2.70;2.03;;;21.40;97.70;;;;;;5087949;28;20089;-67
2021/09/16 11:35:10;;;;;;;2.92;1.75;;;21.50;97.50;;;;;;5090716;28;20070;-65
2021/09/16 11:37:39;;;;;;;2.72;1.85;;;21.50;97.10;;;;;;5089774;28;20043;-65
2021/09/16 11:40:07;;;;;;;3.97;1.90;;;21.40;97.30;;;;;;5091435;28;20374;-66
2021/09/16 11:42:36;;;;;;;4.38;2.28;;;21.60;97.90;;;;;;5091353;28;20077;-66
2021/09/16 11:45:17;;;;;;;2.47;1.98;;;21.50;96.90;;;;;;5091148;28;20028;-66
2021/09/16 11:47:46;;;;;;;;;;;21.50;96.70;;;;;;5091900;28;20115;-66
2021/09/16 11:50:24;;;;;;;3.72;2.05;;;21.40;96.90;;;;;;5090434;28;19908;-66
2021/09/16 11:53:22;;;;;;;3.17;1.38;;;21.30;97.40;;;;;;5092418;28;20106;-66
2021/09/16 11:56:09;;;;;;;3.17;1.52;;;21.30;97.60;;;;;;5092090;28;20036;-67
2021/09/16 11:58:38;;;;;;;3.55;2.25;;;21.20;97.50;;;;;;5090866;28;20123;-67
2021/09/16 12:01:13;;;;;;;4.47;1.88;;;21.30;97.70;;;;;;5091561;28;20508;-63
2021/09/16 12:03:43;;;;;;;4.28;1.92;;;21.20;97.80;;;;;;5092280;28;20025;-65
2021/09/16 12:06:14;;;;;;;2.10;1.40;;;21.20;98.30;;;;;;5090965;28;20016;-65
2021/09/16 12:08:47;;;;;;;4.97;2.22;;;21.40;96.90;;;;;;5073633;28;20036;-66
2021/09/16 12:11:19;;;;;;;1.95;1.20;;;21.40;97.40;;;;;;5091839;28;20035;-66
2021/09/16 12:13:49;;;;;;;2.78;1.00;;;21.30;96.40;;;;;;5082865;28;20092;-65
2021/09/16 12:16:24;;;;;;;2.38;1.05;;;21.00;96.30;;;;;;5086572;28;20027;-66
2021/09/16 12:18:55;;;;;;;3.35;0.82;;;20.90;96.30;;;;;;5084790;28;20046;-67
2021/09/16 12:21:28;;;;;;;0.95;0.82;;;20.90;96.30;;;;;;5090136;28;20093;-65
2021/09/16 12:23:55;;;;;;;5.13;0.90;;;21.00;96.60;;;;;;5087546;28;20048;-66
2021/09/16 12:26:23;;;;;;;2.03;0.70;;;21.10;97.30;;;;;;5089684;28;20032;-66
2021/09/16 12:28:54;;;;;;;1.98;1.10;;;21.10;97.00;;;;;;5090294;28;20016;-66
2021/09/16 12:31:37;;;;;;;2.53;0.77;;;21.30;98.50;;;;;;5072183;28;20433;-66
2021/09/16 12:34:12;;;;;;;1.33;0.63;;;21.50;97.90;;;;;;5089883;28;20071;-66
2021/09/16 12:36:50;;;;;;;0.80;0.50;;;21.50;96.80;;;;;;5091576;28;20060;-66
2021/09/16 12:39:16;;;;;;;3.25;1.00;;;21.70;98.00;;;;;;5090863;28;20465;-66